sensor_id;sensor_type;location;lat;lon;timestamp;P1;durP1;ratioP1;P2;durP2;ratioP2
19519;SDS011;9904;52.246;20.898;2024-01-10T00:00:40;128.00;;;37.93;;
19519;SDS011;9904;52.246;20.898;2024-01-10T00:03:07;134.60;;;33.57;;
19519;SDS011;9904;52.246;20.898;2024-01-10T00:05:33;134.27;;;37.40;;
19519;SDS011;9904;52.246;20.898;2024-01-10T00:08:00;139.73;;;36.80;;
19519;SDS011;9904;52.246;20.898;2024-01-10T00:10:26;119.87;;;33.40;;
19519;SDS011;9904;52.246;20.898;2024-01-10T00:12:53;118.03;;;33.17;;
19519;SDS011;9904;52.246;20.898;2024-01-10T00:15:20;132.83;;;32.60;;
19519;SDS011;9904;52.246;20.898;2024-01-10T00:17:47;126.17;;;33.47;;
19519;SDS011;9904;52.246;20.898;2024-01-10T00:20:14;127.33;;;34.23;;
19519;SDS011;9904;52.246;20.898;2024-01-10T00:22:40;118.43;;;34.80;;
19519;SDS011;9904;52.246;20.898;2024-01-10T00:25:07;113.77;;;32.17;;
19519;SDS011;9904;52.246;20.898;2024-01-10T00:27:34;97.33;;;29.37;;
19519;SDS011;9904;52.246;20.898;2024-01-10T00:30:00;118.70;;;30.60;;
19519;SDS011;9904;52.246;20.898;2024-01-10T00:32:27;132.47;;;33.00;;
19519;SDS011;9904;52.246;20.898;2024-01-10T00:34:54;121.40;;;33.87;;
19519;SDS011;9904;52.246;20.898;2024-01-10T00:37:21;115.50;;;30.80;;
19519;SDS011;9904;52.246;20.898;2024-01-10T00:39:47;120.90;;;33.43;;
19519;SDS011;9904;52.246;20.898;2024-01-10T00:42:14;113.20;;;30.83;;
19519;SDS011;9904;52.246;20.898;2024-01-10T00:44:40;120.53;;;32.83;;
19519;SDS011;9904;52.246;20.898;2024-01-10T00:47:07;116.00;;;31.17;;
19519;SDS011;9904;52.246;20.898;2024-01-10T00:49:33;119.50;;;31.80;;
19519;SDS011;9904;52.246;20.898;2024-01-10T00:52:00;97.20;;;29.80;;
19519;SDS011;9904;52.246;20.898;2024-01-10T00:54:27;113.90;;;32.50;;
19519;SDS011;9904;52.246;20.898;2024-01-10T00:56:53;122.27;;;32.60;;
19519;SDS011;9904;52.246;20.898;2024-01-10T00:59:21;117.63;;;35.27;;
19519;SDS011;9904;52.246;20.898;2024-01-10T01:01:47;120.63;;;32.97;;
19519;SDS011;9904;52.246;20.898;2024-01-10T01:04:14;130.57;;;32.97;;
19519;SDS011;9904;52.246;20.898;2024-01-10T01:06:40;124.53;;;31.53;;
19519;SDS011;9904;52.246;20.898;2024-01-10T01:09:07;134.90;;;32.73;;
19519;SDS011;9904;52.246;20.898;2024-01-10T01:11:34;121.67;;;35.30;;
19519;SDS011;9904;52.246;20.898;2024-01-10T01:14:00;127.97;;;35.50;;
19519;SDS011;9904;52.246;20.898;2024-01-10T01:16:27;122.67;;;36.57;;
19519;SDS011;9904;52.246;20.898;2024-01-10T01:18:53;129.27;;;35.20;;
19519;SDS011;9904;52.246;20.898;2024-01-10T01:21:21;137.43;;;37.47;;
19519;SDS011;9904;52.246;20.898;2024-01-10T01:23:47;136.23;;;35.77;;
19519;SDS011;9904;52.246;20.898;2024-01-10T01:26:14;126.47;;;36.97;;
19519;SDS011;9904;52.246;20.898;2024-01-10T01:28:41;129.00;;;35.97;;
19519;SDS011;9904;52.246;20.898;2024-01-10T01:31:07;111.33;;;37.07;;
19519;SDS011;9904;52.246;20.898;2024-01-10T01:33:34;155.07;;;40.87;;
19519;SDS011;9904;52.246;20.898;2024-01-10T01:36:00;126.73;;;35.07;;
19519;SDS011;9904;52.246;20.898;2024-01-10T01:38:27;133.13;;;37.87;;
19519;SDS011;9904;52.246;20.898;2024-01-10T01:40:53;137.97;;;37.80;;
19519;SDS011;9904;52.246;20.898;2024-01-10T01:43:25;141.03;;;37.43;;
19519;SDS011;9904;52.246;20.898;2024-01-10T01:45:52;134.57;;;40.40;;
19519;SDS011;9904;52.246;20.898;2024-01-10T01:48:21;158.43;;;41.40;;
19519;SDS011;9904;52.246;20.898;2024-01-10T01:50:51;112.20;;;33.83;;
19519;SDS011;9904;52.246;20.898;2024-01-10T01:53:21;138.93;;;35.57;;
19519;SDS011;9904;52.246;20.898;2024-01-10T01:55:48;139.47;;;35.23;;
19519;SDS011;9904;52.246;20.898;2024-01-10T01:58:15;116.20;;;35.60;;
19519;SDS011;9904;52.246;20.898;2024-01-10T02:00:42;139.90;;;39.23;;
19519;SDS011;9904;52.246;20.898;2024-01-10T02:03:10;150.17;;;37.83;;
19519;SDS011;9904;52.246;20.898;2024-01-10T02:05:37;135.87;;;34.50;;
19519;SDS011;9904;52.246;20.898;2024-01-10T02:08:04;135.73;;;38.47;;
19519;SDS011;9904;52.246;20.898;2024-01-10T02:10:31;122.97;;;34.03;;
19519;SDS011;9904;52.246;20.898;2024-01-10T02:12:58;138.83;;;38.10;;
19519;SDS011;9904;52.246;20.898;2024-01-10T02:15:24;122.87;;;35.90;;
19519;SDS011;9904;52.246;20.898;2024-01-10T02:17:51;110.70;;;32.23;;
19519;SDS011;9904;52.246;20.898;2024-01-10T02:20:18;125.83;;;35.50;;
19519;SDS011;9904;52.246;20.898;2024-01-10T02:22:45;125.30;;;31.37;;
19519;SDS011;9904;52.246;20.898;2024-01-10T02:25:12;116.47;;;32.83;;
19519;SDS011;9904;52.246;20.898;2024-01-10T02:27:40;125.70;;;33.43;;
19519;SDS011;9904;52.246;20.898;2024-01-10T02:30:07;113.23;;;33.40;;
19519;SDS011;9904;52.246;20.898;2024-01-10T02:32:35;120.90;;;32.87;;
19519;SDS011;9904;52.246;20.898;2024-01-10T02:35:03;97.27;;;26.77;;
19519;SDS011;9904;52.246;20.898;2024-01-10T02:37:30;102.93;;;32.70;;
19519;SDS011;9904;52.246;20.898;2024-01-10T02:39:57;98.30;;;31.40;;
19519;SDS011;9904;52.246;20.898;2024-01-10T02:42:24;118.90;;;33.77;;
19519;SDS011;9904;52.246;20.898;2024-01-10T02:44:50;108.03;;;31.47;;
19519;SDS011;9904;52.246;20.898;2024-01-10T02:47:17;114.20;;;31.63;;
19519;SDS011;9904;52.246;20.898;2024-01-10T02:49:43;119.03;;;33.40;;
19519;SDS011;9904;52.246;20.898;2024-01-10T02:52:10;129.83;;;33.57;;
19519;SDS011;9904;52.246;20.898;2024-01-10T02:54:36;97.53;;;29.67;;
19519;SDS011;9904;52.246;20.898;2024-01-10T02:57:03;113.50;;;33.40;;
19519;SDS011;9904;52.246;20.898;2024-01-10T02:59:30;125.47;;;35.77;;
19519;SDS011;9904;52.246;20.898;2024-01-10T03:01:56;102.83;;;30.20;;
19519;SDS011;9904;52.246;20.898;2024-01-10T03:04:23;116.37;;;32.63;;
19519;SDS011;9904;52.246;20.898;2024-01-10T03:06:50;120.50;;;33.53;;
19519;SDS011;9904;52.246;20.898;2024-01-10T03:09:16;110.70;;;33.63;;
19519;SDS011;9904;52.246;20.898;2024-01-10T03:11:43;115.67;;;31.87;;
19519;SDS011;9904;52.246;20.898;2024-01-10T03:14:10;118.33;;;32.97;;
19519;SDS011;9904;52.246;20.898;2024-01-10T03:16:37;124.03;;;33.50;;
19519;SDS011;9904;52.246;20.898;2024-01-10T03:19:04;123.23;;;35.17;;
19519;SDS011;9904;52.246;20.898;2024-01-10T03:21:31;122.57;;;34.60;;
19519;SDS011;9904;52.246;20.898;2024-01-10T03:23:58;128.87;;;34.37;;
19519;SDS011;9904;52.246;20.898;2024-01-10T03:26:26;118.90;;;32.50;;
19519;SDS011;9904;52.246;20.898;2024-01-10T03:28:54;124.93;;;32.97;;
19519;SDS011;9904;52.246;20.898;2024-01-10T03:31:21;120.33;;;36.33;;
19519;SDS011;9904;52.246;20.898;2024-01-10T03:33:48;149.33;;;40.27;;
19519;SDS011;9904;52.246;20.898;2024-01-10T03:36:15;137.27;;;35.20;;
19519;SDS011;9904;52.246;20.898;2024-01-10T03:38:43;116.97;;;34.73;;
19519;SDS011;9904;52.246;20.898;2024-01-10T03:41:13;115.93;;;34.03;;
19519;SDS011;9904;52.246;20.898;2024-01-10T03:43:40;109.90;;;33.03;;
19519;SDS011;9904;52.246;20.898;2024-01-10T03:46:08;105.27;;;31.00;;
19519;SDS011;9904;52.246;20.898;2024-01-10T03:48:35;108.50;;;31.63;;
19519;SDS011;9904;52.246;20.898;2024-01-10T03:51:02;134.07;;;37.40;;
19519;SDS011;9904;52.246;20.898;2024-01-10T03:53:29;117.37;;;33.00;;
19519;SDS011;9904;52.246;20.898;2024-01-10T03:55:56;128.07;;;36.00;;
19519;SDS011;9904;52.246;20.898;2024-01-10T03:58:23;111.73;;;32.70;;
19519;SDS011;9904;52.246;20.898;2024-01-10T04:00:50;128.57;;;35.87;;
19519;SDS011;9904;52.246;20.898;2024-01-10T04:03:17;128.77;;;37.17;;
19519;SDS011;9904;52.246;20.898;2024-01-10T04:05:43;124.00;;;36.67;;
19519;SDS011;9904;52.246;20.898;2024-01-10T04:08:10;124.87;;;34.70;;
19519;SDS011;9904;52.246;20.898;2024-01-10T04:10:37;108.67;;;32.67;;
19519;SDS011;9904;52.246;20.898;2024-01-10T04:13:03;134.73;;;38.00;;
19519;SDS011;9904;52.246;20.898;2024-01-10T04:15:30;130.80;;;35.87;;
19519;SDS011;9904;52.246;20.898;2024-01-10T04:17:56;118.30;;;36.03;;
19519;SDS011;9904;52.246;20.898;2024-01-10T04:20:23;125.57;;;33.57;;
19519;SDS011;9904;52.246;20.898;2024-01-10T04:22:50;121.90;;;33.17;;
19519;SDS011;9904;52.246;20.898;2024-01-10T04:25:16;114.47;;;34.77;;
19519;SDS011;9904;52.246;20.898;2024-01-10T04:27:43;124.83;;;34.03;;
19519;SDS011;9904;52.246;20.898;2024-01-10T04:30:09;132.83;;;34.27;;
19519;SDS011;9904;52.246;20.898;2024-01-10T04:32:36;117.60;;;34.83;;
19519;SDS011;9904;52.246;20.898;2024-01-10T04:35:03;101.87;;;31.13;;
19519;SDS011;9904;52.246;20.898;2024-01-10T04:37:30;110.47;;;31.23;;
19519;SDS011;9904;52.246;20.898;2024-01-10T04:39:56;130.70;;;35.03;;
19519;SDS011;9904;52.246;20.898;2024-01-10T04:42:23;117.00;;;32.80;;
19519;SDS011;9904;52.246;20.898;2024-01-10T04:44:50;126.83;;;31.63;;
19519;SDS011;9904;52.246;20.898;2024-01-10T04:47:16;123.07;;;35.20;;
19519;SDS011;9904;52.246;20.898;2024-01-10T04:49:43;110.77;;;35.13;;
19519;SDS011;9904;52.246;20.898;2024-01-10T04:52:10;114.27;;;33.47;;
19519;SDS011;9904;52.246;20.898;2024-01-10T04:54:36;135.70;;;37.00;;
19519;SDS011;9904;52.246;20.898;2024-01-10T04:57:03;112.73;;;30.33;;
19519;SDS011;9904;52.246;20.898;2024-01-10T04:59:30;127.67;;;33.03;;
19519;SDS011;9904;52.246;20.898;2024-01-10T05:01:56;135.73;;;37.97;;
19519;SDS011;9904;52.246;20.898;2024-01-10T05:04:23;138.83;;;40.67;;
19519;SDS011;9904;52.246;20.898;2024-01-10T05:06:49;123.23;;;34.53;;
19519;SDS011;9904;52.246;20.898;2024-01-10T05:09:16;114.37;;;32.50;;
19519;SDS011;9904;52.246;20.898;2024-01-10T05:11:43;114.77;;;32.37;;
19519;SDS011;9904;52.246;20.898;2024-01-10T05:14:13;112.30;;;32.53;;
19519;SDS011;9904;52.246;20.898;2024-01-10T05:16:39;126.87;;;36.33;;
19519;SDS011;9904;52.246;20.898;2024-01-10T05:19:06;126.23;;;35.40;;
19519;SDS011;9904;52.246;20.898;2024-01-10T05:21:33;120.83;;;32.97;;
19519;SDS011;9904;52.246;20.898;2024-01-10T05:23:59;128.43;;;34.70;;
19519;SDS011;9904;52.246;20.898;2024-01-10T05:26:26;129.37;;;38.33;;
19519;SDS011;9904;52.246;20.898;2024-01-10T05:28:53;125.77;;;35.80;;
19519;SDS011;9904;52.246;20.898;2024-01-10T05:31:19;117.33;;;31.40;;
19519;SDS011;9904;52.246;20.898;2024-01-10T05:33:46;126.33;;;35.10;;
19519;SDS011;9904;52.246;20.898;2024-01-10T05:36:13;124.70;;;36.67;;
19519;SDS011;9904;52.246;20.898;2024-01-10T05:38:39;128.97;;;34.17;;
19519;SDS011;9904;52.246;20.898;2024-01-10T05:41:06;124.83;;;34.60;;
19519;SDS011;9904;52.246;20.898;2024-01-10T05:43:33;117.57;;;33.57;;
19519;SDS011;9904;52.246;20.898;2024-01-10T05:45:59;112.13;;;32.17;;
19519;SDS011;9904;52.246;20.898;2024-01-10T05:48:26;121.37;;;32.03;;
19519;SDS011;9904;52.246;20.898;2024-01-10T05:50:53;136.43;;;36.40;;
19519;SDS011;9904;52.246;20.898;2024-01-10T05:53:20;137.67;;;36.73;;
19519;SDS011;9904;52.246;20.898;2024-01-10T05:55:46;122.50;;;33.10;;
19519;SDS011;9904;52.246;20.898;2024-01-10T05:58:13;125.60;;;34.23;;
19519;SDS011;9904;52.246;20.898;2024-01-10T06:00:39;117.57;;;32.63;;
19519;SDS011;9904;52.246;20.898;2024-01-10T06:03:06;109.23;;;32.13;;
19519;SDS011;9904;52.246;20.898;2024-01-10T06:05:34;125.37;;;33.37;;
19519;SDS011;9904;52.246;20.898;2024-01-10T06:08:00;118.17;;;34.87;;
19519;SDS011;9904;52.246;20.898;2024-01-10T06:10:30;124.80;;;33.90;;
19519;SDS011;9904;52.246;20.898;2024-01-10T06:13:00;140.93;;;37.63;;
19519;SDS011;9904;52.246;20.898;2024-01-10T06:15:27;126.80;;;37.40;;
19519;SDS011;9904;52.246;20.898;2024-01-10T06:17:54;131.37;;;37.20;;
19519;SDS011;9904;52.246;20.898;2024-01-10T06:20:21;145.70;;;38.63;;
19519;SDS011;9904;52.246;20.898;2024-01-10T06:22:48;135.10;;;40.63;;
19519;SDS011;9904;52.246;20.898;2024-01-10T06:25:16;120.30;;;39.03;;
19519;SDS011;9904;52.246;20.898;2024-01-10T06:27:42;146.70;;;39.60;;
19519;SDS011;9904;52.246;20.898;2024-01-10T06:30:09;142.33;;;41.60;;
19519;SDS011;9904;52.246;20.898;2024-01-10T06:32:36;123.10;;;38.87;;
19519;SDS011;9904;52.246;20.898;2024-01-10T06:35:03;135.77;;;35.97;;
19519;SDS011;9904;52.246;20.898;2024-01-10T06:37:31;137.50;;;35.30;;
19519;SDS011;9904;52.246;20.898;2024-01-10T06:40:00;135.37;;;39.57;;
19519;SDS011;9904;52.246;20.898;2024-01-10T06:42:27;120.93;;;34.70;;
19519;SDS011;9904;52.246;20.898;2024-01-10T06:44:53;131.60;;;32.73;;
19519;SDS011;9904;52.246;20.898;2024-01-10T06:47:21;112.73;;;34.33;;
19519;SDS011;9904;52.246;20.898;2024-01-10T06:49:48;130.70;;;38.33;;
19519;SDS011;9904;52.246;20.898;2024-01-10T06:52:14;114.07;;;35.80;;
19519;SDS011;9904;52.246;20.898;2024-01-10T06:54:42;120.00;;;32.73;;
19519;SDS011;9904;52.246;20.898;2024-01-10T06:57:09;106.60;;;32.83;;
19519;SDS011;9904;52.246;20.898;2024-01-10T06:59:36;122.57;;;35.67;;
19519;SDS011;9904;52.246;20.898;2024-01-10T07:02:03;132.20;;;36.23;;
19519;SDS011;9904;52.246;20.898;2024-01-10T07:04:31;120.60;;;31.70;;
19519;SDS011;9904;52.246;20.898;2024-01-10T07:06:58;124.53;;;35.23;;
19519;SDS011;9904;52.246;20.898;2024-01-10T07:09:25;129.27;;;35.83;;
19519;SDS011;9904;52.246;20.898;2024-01-10T07:11:52;145.53;;;34.87;;
19519;SDS011;9904;52.246;20.898;2024-01-10T07:14:19;116.80;;;34.93;;
19519;SDS011;9904;52.246;20.898;2024-01-10T07:16:46;132.33;;;33.33;;
19519;SDS011;9904;52.246;20.898;2024-01-10T07:19:14;137.87;;;40.83;;
19519;SDS011;9904;52.246;20.898;2024-01-10T07:21:41;134.43;;;37.43;;
19519;SDS011;9904;52.246;20.898;2024-01-10T07:24:09;128.67;;;37.47;;
19519;SDS011;9904;52.246;20.898;2024-01-10T07:26:36;146.33;;;36.30;;
19519;SDS011;9904;52.246;20.898;2024-01-10T07:29:04;125.33;;;37.50;;
19519;SDS011;9904;52.246;20.898;2024-01-10T07:31:35;141.70;;;38.47;;
19519;SDS011;9904;52.246;20.898;2024-01-10T07:34:02;136.53;;;37.13;;
19519;SDS011;9904;52.246;20.898;2024-01-10T07:36:32;140.03;;;36.60;;
19519;SDS011;9904;52.246;20.898;2024-01-10T07:39:01;138.70;;;37.97;;
19519;SDS011;9904;52.246;20.898;2024-01-10T07:41:30;133.57;;;37.93;;
19519;SDS011;9904;52.246;20.898;2024-01-10T07:43:56;150.70;;;37.43;;
19519;SDS011;9904;52.246;20.898;2024-01-10T07:46:23;141.20;;;35.73;;
19519;SDS011;9904;52.246;20.898;2024-01-10T07:48:50;122.90;;;34.03;;
19519;SDS011;9904;52.246;20.898;2024-01-10T07:51:16;128.47;;;35.67;;
19519;SDS011;9904;52.246;20.898;2024-01-10T07:53:43;150.70;;;42.30;;
19519;SDS011;9904;52.246;20.898;2024-01-10T07:56:10;130.63;;;36.97;;
19519;SDS011;9904;52.246;20.898;2024-01-10T07:58:39;137.70;;;38.63;;
19519;SDS011;9904;52.246;20.898;2024-01-10T08:01:05;143.53;;;36.37;;
19519;SDS011;9904;52.246;20.898;2024-01-10T08:03:32;126.13;;;36.80;;
19519;SDS011;9904;52.246;20.898;2024-01-10T08:05:59;138.77;;;39.00;;
19519;SDS011;9904;52.246;20.898;2024-01-10T08:08:26;142.23;;;39.80;;
19519;SDS011;9904;52.246;20.898;2024-01-10T08:10:53;132.03;;;37.37;;
19519;SDS011;9904;52.246;20.898;2024-01-10T08:13:20;152.37;;;41.10;;
19519;SDS011;9904;52.246;20.898;2024-01-10T08:15:46;133.70;;;38.57;;
19519;SDS011;9904;52.246;20.898;2024-01-10T08:18:13;123.43;;;37.37;;
19519;SDS011;9904;52.246;20.898;2024-01-10T08:20:41;144.50;;;40.50;;
19519;SDS011;9904;52.246;20.898;2024-01-10T08:23:07;143.93;;;42.03;;
19519;SDS011;9904;52.246;20.898;2024-01-10T08:25:34;138.57;;;37.13;;
19519;SDS011;9904;52.246;20.898;2024-01-10T08:28:01;152.83;;;45.20;;
19519;SDS011;9904;52.246;20.898;2024-01-10T08:30:28;140.10;;;39.40;;
19519;SDS011;9904;52.246;20.898;2024-01-10T08:32:55;151.80;;;38.90;;
19519;SDS011;9904;52.246;20.898;2024-01-10T08:35:22;145.17;;;41.57;;
19519;SDS011;9904;52.246;20.898;2024-01-10T08:37:53;159.77;;;41.60;;
19519;SDS011;9904;52.246;20.898;2024-01-10T08:40:21;144.57;;;41.23;;
19519;SDS011;9904;52.246;20.898;2024-01-10T08:42:52;142.20;;;39.10;;
19519;SDS011;9904;52.246;20.898;2024-01-10T08:45:19;143.70;;;38.80;;
19519;SDS011;9904;52.246;20.898;2024-01-10T08:47:46;154.07;;;41.43;;
19519;SDS011;9904;52.246;20.898;2024-01-10T08:50:12;145.33;;;44.07;;
19519;SDS011;9904;52.246;20.898;2024-01-10T08:52:40;117.80;;;36.50;;
19519;SDS011;9904;52.246;20.898;2024-01-10T08:55:07;136.40;;;39.03;;
19519;SDS011;9904;52.246;20.898;2024-01-10T08:57:39;141.73;;;37.40;;
19519;SDS011;9904;52.246;20.898;2024-01-10T09:00:06;124.43;;;37.90;;
19519;SDS011;9904;52.246;20.898;2024-01-10T09:02:38;131.50;;;40.47;;
19519;SDS011;9904;52.246;20.898;2024-01-10T09:05:05;118.37;;;35.30;;
19519;SDS011;9904;52.246;20.898;2024-01-10T09:07:37;120.83;;;36.63;;
19519;SDS011;9904;52.246;20.898;2024-01-10T09:10:04;122.30;;;36.07;;
19519;SDS011;9904;52.246;20.898;2024-01-10T09:12:34;115.90;;;35.53;;
19519;SDS011;9904;52.246;20.898;2024-01-10T09:15:01;112.60;;;34.40;;
19519;SDS011;9904;52.246;20.898;2024-01-10T09:17:29;123.17;;;35.93;;
19519;SDS011;9904;52.246;20.898;2024-01-10T09:19:56;115.60;;;34.07;;
19519;SDS011;9904;52.246;20.898;2024-01-10T09:22:22;128.37;;;37.63;;
19519;SDS011;9904;52.246;20.898;2024-01-10T09:24:49;122.30;;;38.47;;
19519;SDS011;9904;52.246;20.898;2024-01-10T09:27:16;113.63;;;34.57;;
19519;SDS011;9904;52.246;20.898;2024-01-10T09:29:42;117.33;;;36.10;;
19519;SDS011;9904;52.246;20.898;2024-01-10T09:32:09;115.03;;;35.57;;
19519;SDS011;9904;52.246;20.898;2024-01-10T09:34:36;135.07;;;40.23;;
19519;SDS011;9904;52.246;20.898;2024-01-10T09:37:02;142.37;;;38.73;;
19519;SDS011;9904;52.246;20.898;2024-01-10T09:39:30;121.77;;;40.33;;
19519;SDS011;9904;52.246;20.898;2024-01-10T09:41:57;129.13;;;41.23;;
19519;SDS011;9904;52.246;20.898;2024-01-10T09:44:24;125.13;;;39.37;;
19519;SDS011;9904;52.246;20.898;2024-01-10T09:46:52;125.10;;;40.00;;
19519;SDS011;9904;52.246;20.898;2024-01-10T09:49:21;120.30;;;35.90;;
19519;SDS011;9904;52.246;20.898;2024-01-10T09:51:49;125.53;;;41.67;;
19519;SDS011;9904;52.246;20.898;2024-01-10T09:54:22;126.97;;;37.47;;
19519;SDS011;9904;52.246;20.898;2024-01-10T09:56:52;129.13;;;37.37;;
19519;SDS011;9904;52.246;20.898;2024-01-10T09:59:22;102.43;;;34.90;;
19519;SDS011;9904;52.246;20.898;2024-01-10T10:01:49;145.57;;;42.00;;
19519;SDS011;9904;52.246;20.898;2024-01-10T10:04:18;129.03;;;38.43;;
19519;SDS011;9904;52.246;20.898;2024-01-10T10:06:46;141.30;;;41.83;;
19519;SDS011;9904;52.246;20.898;2024-01-10T10:09:13;124.30;;;38.70;;
19519;SDS011;9904;52.246;20.898;2024-01-10T10:11:41;136.67;;;37.73;;
19519;SDS011;9904;52.246;20.898;2024-01-10T10:14:14;125.57;;;38.90;;
19519;SDS011;9904;52.246;20.898;2024-01-10T10:16:43;124.80;;;38.13;;
19519;SDS011;9904;52.246;20.898;2024-01-10T10:19:10;128.50;;;37.53;;
19519;SDS011;9904;52.246;20.898;2024-01-10T10:21:44;124.57;;;40.13;;
19519;SDS011;9904;52.246;20.898;2024-01-10T10:24:11;116.37;;;36.07;;
19519;SDS011;9904;52.246;20.898;2024-01-10T10:26:43;124.50;;;39.07;;
19519;SDS011;9904;52.246;20.898;2024-01-10T10:29:10;146.60;;;41.27;;
19519;SDS011;9904;52.246;20.898;2024-01-10T10:31:36;138.23;;;42.50;;
19519;SDS011;9904;52.246;20.898;2024-01-10T10:34:03;128.03;;;39.97;;
19519;SDS011;9904;52.246;20.898;2024-01-10T10:36:30;140.67;;;40.37;;
19519;SDS011;9904;52.246;20.898;2024-01-10T10:38:59;119.07;;;38.47;;
19519;SDS011;9904;52.246;20.898;2024-01-10T10:41:29;130.60;;;39.13;;
19519;SDS011;9904;52.246;20.898;2024-01-10T10:43:58;136.97;;;43.43;;
19519;SDS011;9904;52.246;20.898;2024-01-10T10:46:26;121.83;;;38.67;;
19519;SDS011;9904;52.246;20.898;2024-01-10T10:48:56;131.03;;;39.37;;
19519;SDS011;9904;52.246;20.898;2024-01-10T10:51:33;124.10;;;38.50;;
19519;SDS011;9904;52.246;20.898;2024-01-10T10:54:00;125.93;;;39.07;;
19519;SDS011;9904;52.246;20.898;2024-01-10T10:56:32;131.27;;;37.83;;
19519;SDS011;9904;52.246;20.898;2024-01-10T10:59:03;120.80;;;37.40;;
19519;SDS011;9904;52.246;20.898;2024-01-10T11:01:32;118.07;;;38.70;;
19519;SDS011;9904;52.246;20.898;2024-01-10T11:04:00;110.67;;;36.57;;
19519;SDS011;9904;52.246;20.898;2024-01-10T11:06:27;116.70;;;36.07;;
19519;SDS011;9904;52.246;20.898;2024-01-10T11:09:00;128.43;;;37.43;;
19519;SDS011;9904;52.246;20.898;2024-01-10T11:17:26;106.37;;;32.60;;
19519;SDS011;9904;52.246;20.898;2024-01-10T11:20:13;119.97;;;35.57;;
19519;SDS011;9904;52.246;20.898;2024-01-10T11:23:01;119.63;;;34.13;;
19519;SDS011;9904;52.246;20.898;2024-01-10T11:25:47;113.97;;;39.13;;
19519;SDS011;9904;52.246;20.898;2024-01-10T11:28:14;115.60;;;34.33;;
19519;SDS011;9904;52.246;20.898;2024-01-10T11:30:48;127.87;;;35.13;;
19519;SDS011;9904;52.246;20.898;2024-01-10T11:33:25;108.47;;;34.27;;
19519;SDS011;9904;52.246;20.898;2024-01-10T11:36:13;119.50;;;36.60;;
19519;SDS011;9904;52.246;20.898;2024-01-10T11:38:45;109.43;;;35.97;;
19519;SDS011;9904;52.246;20.898;2024-01-10T11:41:28;118.03;;;36.53;;
19519;SDS011;9904;52.246;20.898;2024-01-10T11:46:45;116.57;;;32.13;;
19519;SDS011;9904;52.246;20.898;2024-01-10T11:49:15;116.77;;;34.03;;
19519;SDS011;9904;52.246;20.898;2024-01-10T11:51:47;101.50;;;32.57;;
19519;SDS011;9904;52.246;20.898;2024-01-10T11:57:18;96.97;;;31.87;;
19519;SDS011;9904;52.246;20.898;2024-01-10T11:59:50;97.23;;;30.80;;
19519;SDS011;9904;52.246;20.898;2024-01-10T12:02:18;106.97;;;34.63;;
19519;SDS011;9904;52.246;20.898;2024-01-10T12:04:46;97.00;;;27.70;;
19519;SDS011;9904;52.246;20.898;2024-01-10T12:07:15;106.60;;;33.77;;
19519;SDS011;9904;52.246;20.898;2024-01-10T12:09:43;111.50;;;31.87;;
19519;SDS011;9904;52.246;20.898;2024-01-10T12:12:11;104.37;;;34.03;;
19519;SDS011;9904;52.246;20.898;2024-01-10T12:14:39;102.13;;;32.40;;
19519;SDS011;9904;52.246;20.898;2024-01-10T12:17:07;95.00;;;30.10;;
19519;SDS011;9904;52.246;20.898;2024-01-10T12:19:35;96.17;;;32.53;;
19519;SDS011;9904;52.246;20.898;2024-01-10T12:22:04;127.23;;;34.07;;
19519;SDS011;9904;52.246;20.898;2024-01-10T12:24:42;105.40;;;33.83;;
19519;SDS011;9904;52.246;20.898;2024-01-10T12:27:15;119.30;;;34.77;;
19519;SDS011;9904;52.246;20.898;2024-01-10T12:29:42;116.33;;;37.13;;
19519;SDS011;9904;52.246;20.898;2024-01-10T12:32:09;108.13;;;33.23;;
19519;SDS011;9904;52.246;20.898;2024-01-10T12:34:39;134.07;;;37.50;;
19519;SDS011;9904;52.246;20.898;2024-01-10T12:37:06;119.03;;;36.87;;
19519;SDS011;9904;52.246;20.898;2024-01-10T12:39:33;115.37;;;35.03;;
19519;SDS011;9904;52.246;20.898;2024-01-10T12:42:00;118.93;;;33.80;;
19519;SDS011;9904;52.246;20.898;2024-01-10T12:44:27;107.27;;;34.40;;
19519;SDS011;9904;52.246;20.898;2024-01-10T12:46:56;105.03;;;35.33;;
19519;SDS011;9904;52.246;20.898;2024-01-10T12:49:23;101.87;;;33.63;;
19519;SDS011;9904;52.246;20.898;2024-01-10T12:51:50;106.00;;;31.30;;
19519;SDS011;9904;52.246;20.898;2024-01-10T12:54:17;117.37;;;35.00;;
19519;SDS011;9904;52.246;20.898;2024-01-10T12:56:45;123.77;;;35.33;;
19519;SDS011;9904;52.246;20.898;2024-01-10T12:59:12;106.73;;;34.90;;
19519;SDS011;9904;52.246;20.898;2024-01-10T13:01:39;107.67;;;35.33;;
19519;SDS011;9904;52.246;20.898;2024-01-10T13:04:06;124.90;;;36.30;;
19519;SDS011;9904;52.246;20.898;2024-01-10T13:06:34;107.80;;;36.37;;
19519;SDS011;9904;52.246;20.898;2024-01-10T13:09:02;118.37;;;35.20;;
19519;SDS011;9904;52.246;20.898;2024-01-10T13:11:28;90.47;;;29.10;;
19519;SDS011;9904;52.246;20.898;2024-01-10T13:13:56;123.70;;;37.87;;
19519;SDS011;9904;52.246;20.898;2024-01-10T13:16:23;116.00;;;37.60;;
19519;SDS011;9904;52.246;20.898;2024-01-10T13:18:50;123.77;;;35.07;;
19519;SDS011;9904;52.246;20.898;2024-01-10T13:21:20;125.57;;;36.07;;
19519;SDS011;9904;52.246;20.898;2024-01-10T13:23:47;124.43;;;37.27;;
19519;SDS011;9904;52.246;20.898;2024-01-10T13:26:13;125.90;;;38.83;;
19519;SDS011;9904;52.246;20.898;2024-01-10T13:28:41;115.70;;;36.57;;
19519;SDS011;9904;52.246;20.898;2024-01-10T13:31:08;131.13;;;39.23;;
19519;SDS011;9904;52.246;20.898;2024-01-10T13:33:36;116.73;;;37.83;;
19519;SDS011;9904;52.246;20.898;2024-01-10T13:36:12;119.80;;;36.57;;
19519;SDS011;9904;52.246;20.898;2024-01-10T13:38:39;135.50;;;38.53;;
19519;SDS011;9904;52.246;20.898;2024-01-10T13:41:05;128.60;;;37.47;;
19519;SDS011;9904;52.246;20.898;2024-01-10T13:43:32;119.30;;;39.33;;
19519;SDS011;9904;52.246;20.898;2024-01-10T13:45:59;129.87;;;40.87;;
19519;SDS011;9904;52.246;20.898;2024-01-10T13:48:31;84.30;;;28.10;;
19519;SDS011;9904;52.246;20.898;2024-01-10T13:50:58;100.63;;;30.13;;
19519;SDS011;9904;52.246;20.898;2024-01-10T13:53:24;78.37;;;23.77;;
19519;SDS011;9904;52.246;20.898;2024-01-10T13:55:51;81.90;;;23.47;;
19519;SDS011;9904;52.246;20.898;2024-01-10T13:58:18;77.03;;;23.17;;
19519;SDS011;9904;52.246;20.898;2024-01-10T14:00:45;78.07;;;23.90;;
19519;SDS011;9904;52.246;20.898;2024-01-10T14:03:13;71.70;;;21.53;;
19519;SDS011;9904;52.246;20.898;2024-01-10T14:05:40;69.53;;;20.23;;
19519;SDS011;9904;52.246;20.898;2024-01-10T14:08:07;64.17;;;20.40;;
19519;SDS011;9904;52.246;20.898;2024-01-10T14:10:35;71.80;;;21.13;;
19519;SDS011;9904;52.246;20.898;2024-01-10T14:13:01;74.80;;;19.90;;
19519;SDS011;9904;52.246;20.898;2024-01-10T14:15:30;64.47;;;20.10;;
19519;SDS011;9904;52.246;20.898;2024-01-10T14:17:56;63.53;;;19.67;;
19519;SDS011;9904;52.246;20.898;2024-01-10T14:20:24;59.80;;;19.47;;
19519;SDS011;9904;52.246;20.898;2024-01-10T14:22:51;66.13;;;20.27;;
19519;SDS011;9904;52.246;20.898;2024-01-10T14:25:18;62.60;;;19.20;;